Time;durP1;ratioP1;P1;durP2;ratioP2;P2;SDS_P1;SDS_P2;PMS_P1;PMS_P2;Temp;Humidity;BMP_temperature;BMP_pressure;BME280_temperature;BME280_humidity;BME280_pressure;Samples;Min_cycle;Max_cycle;Signal;HPM_P1;HPM_P2
2021/03/29 00:02:03;;;;;;;58.13;8.85;;;8.10;99.90;;;;;;5012946;28;20026;-77
2021/03/29 00:04:29;;;;;;;53.55;9.05;;;8.10;99.90;;;;;;5013517;28;20022;-77
2021/03/29 00:06:57;;;;;;;65.70;9.00;;;8.00;99.90;;;;;;5013635;28;20056;-78
2021/03/29 00:09:24;;;;;;;38.80;6.97;;;8.10;99.90;;;;;;5014069;28;20088;-76
2021/03/29 00:11:51;;;;;;;53.92;8.57;;;8.10;99.90;;;;;;5012553;28;20395;-77
2021/03/29 00:14:17;;;;;;;66.53;9.70;;;8.10;99.90;;;;;;5011996;28;20076;-77
2021/03/29 00:16:44;;;;;;;63.35;8.57;;;8.10;99.90;;;;;;5012335;28;20022;-77
2021/03/29 00:19:10;;;;;;;48.53;8.98;;;8.10;99.90;;;;;;5013760;28;20042;-77
2021/03/29 00:21:37;;;;;;;55.50;7.95;;;8.10;99.90;;;;;;5012250;28;20083;-77
2021/03/29 00:24:04;;;;;;;59.58;8.07;;;8.10;99.90;;;;;;5013173;28;20057;-77
2021/03/29 00:26:30;;;;;;;53.40;9.10;;;8.10;99.90;;;;;;5013013;28;20083;-77
2021/03/29 00:28:55;;;;;;;63.88;8.65;;;8.10;99.90;;;;;;5013642;28;20117;-76
2021/03/29 00:31:21;;;;;;;51.30;9.10;;;8.10;99.90;;;;;;5012415;28;20049;-77
2021/03/29 00:33:48;;;;;;;62.78;9.43;;;8.00;99.90;;;;;;5011757;28;20127;-76
2021/03/29 00:36:15;;;;;;;54.38;8.95;;;8.10;99.90;;;;;;5012027;28;20026;-76
2021/03/29 00:38:42;;;;;;;70.82;11.07;;;8.10;99.90;;;;;;5013447;28;20026;-77
2021/03/29 00:41:10;;;;;;;50.78;8.40;;;8.10;99.90;;;;;;5013192;28;20022;-77
2021/03/29 00:43:39;;;;;;;62.42;9.73;;;8.00;99.90;;;;;;5013270;28;20116;-77
2021/03/29 00:46:07;;;;;;;44.58;7.80;;;8.00;99.90;;;;;;5013129;28;20046;-76
2021/03/29 00:48:33;;;;;;;61.55;7.95;;;8.10;99.90;;;;;;5011034;28;20038;-77
2021/03/29 00:51:11;;;;;;;54.00;6.30;;;8.00;99.90;;;;;;5012046;28;20062;-76
2021/03/29 00:53:40;;;;;;;63.42;10.52;;;8.00;99.90;;;;;;5012965;28;20046;-77
2021/03/29 00:56:06;;;;;;;54.22;8.35;;;8.00;99.90;;;;;;5011472;28;20026;-77
2021/03/29 00:58:33;;;;;;;69.30;8.98;;;7.90;99.90;;;;;;5011125;28;20026;-77
2021/03/29 01:01:08;;;;;;;48.10;7.82;;;7.90;99.90;;;;;;5011888;28;20041;-76
2021/03/29 01:03:36;;;;;;;51.00;7.68;;;7.90;99.90;;;;;;5012872;28;20061;-76
2021/03/29 01:06:04;;;;;;;64.80;9.35;;;7.90;99.90;;;;;;5011859;28;20045;-77
2021/03/29 01:08:33;;;;;;;58.60;8.38;;;8.00;99.90;;;;;;5012821;28;20018;-77
2021/03/29 01:11:00;;;;;;;60.47;8.93;;;7.90;99.90;;;;;;5012413;28;20026;-77
2021/03/29 01:13:27;;;;;;;60.55;8.07;;;7.90;99.90;;;;;;5012676;28;20018;-77
2021/03/29 01:15:56;;;;;;;37.45;7.38;;;7.90;99.90;;;;;;5012080;28;20061;-77
2021/03/29 01:18:24;;;;;;;54.85;8.88;;;7.80;99.90;;;;;;5012396;28;20088;-77
2021/03/29 01:21:08;;;;;;;55.88;8.57;;;7.80;99.90;;;;;;5012422;28;20022;-77
2021/03/29 01:23:35;;;;;;;72.38;9.07;;;7.70;99.90;;;;;;5012570;28;20482;-77
2021/03/29 01:26:16;;;;;;;58.67;9.85;;;7.70;99.90;;;;;;5010609;28;20041;-77
2021/03/29 01:28:43;;;;;;;63.53;10.13;;;7.60;99.90;;;;;;5011989;28;20025;-75
2021/03/29 01:31:09;;;;;;;65.45;10.15;;;7.60;99.90;;;;;;5011331;28;20071;-76
2021/03/29 01:33:38;;;;;;;45.97;9.00;;;7.50;99.90;;;;;;5011050;28;20486;-76
2021/03/29 01:36:04;;;;;;;57.78;11.10;;;7.60;99.90;;;;;;5011209;28;20030;-76
2021/03/29 01:38:31;;;;;;;63.35;10.13;;;7.60;99.90;;;;;;5012118;28;20130;-77
2021/03/29 01:40:58;;;;;;;56.88;9.82;;;7.60;99.90;;;;;;5010941;28;20127;-76
2021/03/29 01:43:26;;;;;;;60.13;8.10;;;7.60;99.90;;;;;;5010874;28;20030;-76
2021/03/29 01:45:53;;;;;;;67.72;11.38;;;7.60;99.90;;;;;;5011221;28;20112;-77
2021/03/29 01:48:19;;;;;;;60.60;9.10;;;7.60;99.90;;;;;;5012139;28;20394;-76
2021/03/29 01:50:46;;;;;;;60.40;7.38;;;7.60;99.90;;;;;;5012068;28;20442;-76
2021/03/29 01:53:13;;;;;;;73.47;9.75;;;7.60;99.90;;;;;;5012143;28;20412;-75
2021/03/29 01:55:40;;;;;;;61.50;8.85;;;7.60;99.90;;;;;;5010975;28;20034;-75
2021/03/29 01:58:07;;;;;;;64.53;9.32;;;7.60;99.90;;;;;;5009626;28;20486;-75
2021/03/29 02:00:55;;;;;;;68.68;9.38;;;7.60;99.90;;;;;;5010701;28;20030;-75
2021/03/29 02:03:21;;;;;;;71.63;9.70;;;7.60;99.90;;;;;;5011986;28;20140;-76
2021/03/29 02:05:48;;;;;;;53.28;9.10;;;7.60;99.90;;;;;;5010709;28;20030;-76
2021/03/29 02:08:16;;;;;;;67.40;8.75;;;7.60;99.90;;;;;;5010679;28;20026;-76
2021/03/29 02:10:42;;;;;;;70.32;9.65;;;7.60;99.90;;;;;;5011664;28;20026;-76
2021/03/29 02:13:32;;;;;;;49.17;9.57;;;7.60;99.90;;;;;;5011416;28;20083;-76
2021/03/29 02:16:02;;;;;;;59.25;8.98;;;7.60;99.90;;;;;;5000746;28;20049;-76
2021/03/29 02:18:31;;;;;;;51.75;8.35;;;7.60;99.90;;;;;;5011757;28;20034;-76
2021/03/29 02:21:04;;;;;;;58.08;7.63;;;7.50;99.90;;;;;;5010409;28;20026;-76
2021/03/29 02:23:30;;;;;;;49.78;9.43;;;7.60;99.90;;;;;;5010595;28;20037;-76
2021/03/29 02:25:59;;;;;;;63.00;10.45;;;7.50;99.90;;;;;;5008844;28;20037;-75
2021/03/29 02:28:25;;;;;;;59.58;8.55;;;7.50;99.90;;;;;;5010272;28;20033;-76
2021/03/29 02:30:51;;;;;;;57.63;9.55;;;7.50;99.90;;;;;;5011738;28;20026;-76
2021/03/29 02:33:17;;;;;;;63.03;9.82;;;7.50;99.90;;;;;;5009750;28;20022;-76
2021/03/29 02:35:44;;;;;;;64.00;9.98;;;7.50;99.90;;;;;;5009105;28;20034;-76
2021/03/29 02:38:18;;;;;;;65.35;9.57;;;7.50;99.90;;;;;;4991844;28;20474;-76
2021/03/29 02:40:47;;;;;;;59.58;8.75;;;7.50;99.90;;;;;;4992637;28;20084;-76
2021/03/29 02:43:14;;;;;;;44.15;8.02;;;7.50;99.90;;;;;;5011434;28;20022;-75
2021/03/29 02:45:58;;;;;;;60.10;9.30;;;7.60;99.90;;;;;;5010847;28;20037;-76
2021/03/29 02:48:27;;;;;;;62.17;8.52;;;7.50;99.90;;;;;;5013105;28;20029;-76
2021/03/29 02:50:55;;;;;;;61.75;8.70;;;7.50;99.90;;;;;;5015333;28;20052;-76
2021/03/29 02:53:24;;;;;;;53.60;8.13;;;7.50;99.90;;;;;;5015116;28;20022;-76
2021/03/29 02:55:52;;;;;;;52.90;8.38;;;7.50;99.90;;;;;;5014525;28;20084;-76
2021/03/29 02:58:23;;;;;;;53.47;9.85;;;7.50;99.90;;;;;;5015400;28;20549;-75
2021/03/29 03:00:50;;;;;;;54.55;7.80;;;7.40;99.90;;;;;;5015459;28;20493;-76
2021/03/29 03:03:16;;;;;;;68.53;10.00;;;7.40;99.90;;;;;;5015012;28;20088;-76
2021/03/29 03:05:44;;;;;;;62.70;8.82;;;7.30;99.90;;;;;;5014585;28;20088;-75
2021/03/29 03:08:09;;;;;;;59.15;11.40;;;7.40;99.90;;;;;;5015091;28;20049;-75
2021/03/29 03:10:36;;;;;;;48.30;9.48;;;7.30;99.90;;;;;;5013984;28;20064;-76
2021/03/29 03:13:08;;;;;;;80.35;10.25;;;7.30;99.90;;;;;;5013226;28;20033;-76
2021/03/29 03:15:35;;;;;;;81.10;11.55;;;7.30;99.90;;;;;;5013187;28;20120;-75
2021/03/29 03:18:03;;;;;;;64.72;10.63;;;7.30;99.90;;;;;;5013704;28;20474;-76
2021/03/29 03:20:30;;;;;;;69.13;11.20;;;7.30;99.90;;;;;;5014791;28;20061;-75
2021/03/29 03:23:05;;;;;;;71.90;11.80;;;7.30;99.90;;;;;;5014795;28;20065;-76
2021/03/29 03:25:35;;;;;;;53.40;11.63;;;7.30;99.90;;;;;;5014255;28;20030;-76
2021/03/29 03:28:03;;;;;;;59.90;12.00;;;7.30;99.90;;;;;;5013323;28;20037;-76
2021/03/29 03:30:33;;;;;;;62.03;11.32;;;7.30;99.90;;;;;;5014778;28;20026;-76
2021/03/29 03:33:01;;;;;;;68.43;12.93;;;7.30;99.90;;;;;;5014460;28;20528;-76
2021/03/29 03:35:28;;;;;;;54.05;10.77;;;7.30;99.90;;;;;;5012882;28;20065;-76
2021/03/29 03:38:15;;;;;;;47.75;11.15;;;7.30;99.90;;;;;;5014661;28;20026;-76
2021/03/29 03:40:43;;;;;;;79.57;14.00;;;7.30;99.90;;;;;;5014452;28;20087;-76
2021/03/29 03:43:11;;;;;;;56.28;12.40;;;7.30;99.90;;;;;;5010060;28;20694;-76
2021/03/29 03:45:45;;;;;;;73.28;13.10;;;7.30;99.90;;;;;;4994332;28;20031;-76
2021/03/29 03:48:16;;;;;;;72.10;12.40;;;7.20;99.90;;;;;;4994763;28;20057;-76
2021/03/29 03:50:46;;;;;;;65.35;14.07;;;7.30;99.90;;;;;;4994964;28;20061;-76
2021/03/29 03:53:13;;;;;;;72.10;12.13;;;7.30;99.90;;;;;;5012478;28;20052;-76
2021/03/29 03:55:39;;;;;;;80.97;14.32;;;7.30;99.90;;;;;;5012461;28;20248;-76
2021/03/29 03:58:05;;;;;;;58.97;13.30;;;7.30;99.90;;;;;;5013841;28;20095;-75
2021/03/29 04:00:30;;;;;;;71.40;14.70;;;7.30;99.90;;;;;;5013564;28;20108;-76
2021/03/29 04:02:56;;;;;;;89.00;17.40;;;7.30;99.90;;;;;;5014315;28;20041;-76
2021/03/29 04:05:22;;;;;;;87.03;13.02;;;7.30;99.90;;;;;;5012174;28;20394;-75
2021/03/29 04:07:51;;;;;;;80.70;14.13;;;7.30;99.90;;;;;;5014103;28;20486;-76
2021/03/29 04:10:20;;;;;;;65.50;14.18;;;7.30;99.90;;;;;;5012973;28;20068;-76
2021/03/29 04:12:52;;;;;;;80.30;13.13;;;7.30;99.90;;;;;;5013824;28;20044;-76
2021/03/29 04:15:17;;;;;;;97.70;13.13;;;7.30;99.90;;;;;;5013378;28;20025;-76
2021/03/29 04:17:43;;;;;;;88.88;11.68;;;7.30;99.90;;;;;;5013845;28;20048;-75
2021/03/29 04:20:09;;;;;;;55.30;11.73;;;7.30;99.90;;;;;;5013953;28;20092;-76
2021/03/29 04:22:36;;;;;;;74.90;10.77;;;7.30;99.90;;;;;;5013567;28;20057;-75
2021/03/29 04:25:02;;;;;;;84.45;11.63;;;7.30;99.90;;;;;;5013138;28;20037;-75
2021/03/29 04:27:28;;;;;;;70.32;11.18;;;7.30;99.90;;;;;;5012194;28;20506;-75
2021/03/29 04:29:53;;;;;;;86.13;12.55;;;7.40;99.90;;;;;;5013706;28;20033;-76
2021/03/29 04:32:19;;;;;;;88.15;12.32;;;7.40;99.90;;;;;;5013369;28;20036;-76
2021/03/29 04:34:45;;;;;;;90.30;11.38;;;7.40;99.90;;;;;;5011751;28;20029;-76
2021/03/29 04:37:10;;;;;;;46.33;9.60;;;7.40;99.90;;;;;;5011973;28;20022;-76
2021/03/29 04:39:36;;;;;;;60.63;10.15;;;7.40;99.90;;;;;;5013585;28;20080;-76
2021/03/29 04:42:01;;;;;;;69.35;10.85;;;7.50;99.90;;;;;;5013167;28;20069;-76
2021/03/29 04:44:27;;;;;;;72.65;11.85;;;7.50;99.90;;;;;;5012238;28;20080;-75
2021/03/29 04:46:52;;;;;;;57.65;9.77;;;7.50;99.90;;;;;;5013178;28;20022;-76
2021/03/29 04:49:18;;;;;;;84.57;10.48;;;7.60;99.90;;;;;;5013294;28;20053;-76
2021/03/29 04:51:43;;;;;;;58.78;10.20;;;7.60;99.90;;;;;;5013006;28;20577;-76
2021/03/29 04:54:09;;;;;;;68.90;9.82;;;7.60;99.90;;;;;;5012629;28;20029;-76
2021/03/29 04:56:35;;;;;;;70.90;10.38;;;7.70;99.90;;;;;;5013019;28;20060;-76
2021/03/29 04:59:00;;;;;;;66.15;9.73;;;7.70;99.90;;;;;;5013108;28;20530;-76
2021/03/29 05:01:26;;;;;;;77.50;10.65;;;7.70;99.90;;;;;;5011598;28;20399;-76
2021/03/29 05:03:51;;;;;;;58.95;9.80;;;7.70;99.90;;;;;;5011092;28;20026;-76
2021/03/29 05:06:17;;;;;;;78.97;11.63;;;7.70;99.90;;;;;;5012902;28;20049;-76
2021/03/29 05:08:42;;;;;;;60.63;8.77;;;7.70;99.90;;;;;;5012953;28;20030;-76
2021/03/29 05:11:10;;;;;;;68.32;9.27;;;7.70;99.90;;;;;;5010362;28;20026;-76
2021/03/29 05:13:35;;;;;;;63.63;9.50;;;7.70;99.90;;;;;;5012774;28;20040;-76
2021/03/29 05:16:01;;;;;;;59.22;8.95;;;7.70;99.90;;;;;;5012435;28;20033;-76
2021/03/29 05:18:26;;;;;;;56.25;9.13;;;7.70;99.90;;;;;;5012602;28;20033;-76
2021/03/29 05:20:52;;;;;;;65.60;9.15;;;7.70;99.90;;;;;;5011511;28;20088;-76
2021/03/29 05:23:18;;;;;;;71.15;9.82;;;7.70;99.90;;;;;;5012252;28;20103;-76
2021/03/29 05:25:43;;;;;;;77.15;11.88;;;7.70;99.90;;;;;;5011702;28;20029;-76
2021/03/29 05:28:09;;;;;;;83.10;9.68;;;7.60;99.90;;;;;;5012594;28;20395;-76
2021/03/29 05:30:34;;;;;;;74.18;11.30;;;7.60;99.90;;;;;;5012542;28;20072;-75
2021/03/29 05:33:01;;;;;;;64.85;9.88;;;7.70;99.90;;;;;;5012000;28;20068;-76
2021/03/29 05:35:27;;;;;;;65.20;10.60;;;7.70;99.90;;;;;;5011666;28;20053;-76
2021/03/29 05:37:52;;;;;;;76.70;12.68;;;7.70;99.90;;;;;;5012446;28;20061;-76
2021/03/29 05:40:18;;;;;;;86.93;11.23;;;7.70;99.90;;;;;;5011197;28;20486;-76
2021/03/29 05:42:45;;;;;;;78.97;11.30;;;7.60;99.90;;;;;;5012137;28;20038;-76
2021/03/29 05:45:11;;;;;;;63.78;11.30;;;7.60;99.90;;;;;;5011564;28;20030;-76
2021/03/29 05:47:39;;;;;;;66.53;9.77;;;7.70;99.90;;;;;;5010842;28;20049;-76
2021/03/29 05:50:08;;;;;;;63.63;10.00;;;7.70;99.90;;;;;;5012347;28;20033;-75
2021/03/29 05:52:34;;;;;;;73.20;11.30;;;7.70;99.90;;;;;;5012004;28;20101;-75
2021/03/29 05:55:00;;;;;;;71.55;10.90;;;7.60;99.90;;;;;;5011596;28;20018;-76
2021/03/29 05:57:26;;;;;;;84.85;12.70;;;7.60;99.90;;;;;;5011931;28;20398;-76
2021/03/29 05:59:51;;;;;;;67.28;11.35;;;7.60;99.90;;;;;;5012120;28;20026;-75
2021/03/29 06:02:29;;;;;;;74.55;11.85;;;7.60;99.90;;;;;;5011843;28;20061;-76
2021/03/29 06:04:55;;;;;;;71.22;13.20;;;7.60;99.90;;;;;;5010100;28;20386;-76
2021/03/29 06:07:29;;;;;;;78.45;12.13;;;7.50;99.90;;;;;;5011921;28;20044;-76
2021/03/29 06:10:06;;;;;;;94.93;12.07;;;7.50;99.90;;;;;;5012050;28;20026;-75
2021/03/29 06:12:43;;;;;;;93.00;13.13;;;7.50;99.90;;;;;;5011618;28;20494;-76
2021/03/29 06:15:10;;;;;;;94.53;12.02;;;7.50;99.90;;;;;;5011318;28;20045;-76
2021/03/29 06:17:37;;;;;;;80.32;11.77;;;7.50;99.90;;;;;;5010588;28;20178;-76
2021/03/29 06:20:04;;;;;;;88.63;12.38;;;7.50;99.90;;;;;;5010656;28;20030;-76
2021/03/29 06:22:34;;;;;;;81.07;11.73;;;7.60;99.90;;;;;;5011214;28;20112;-76
2021/03/29 06:25:12;;;;;;;89.63;12.57;;;7.50;99.90;;;;;;5009855;28;20030;-76
2021/03/29 06:27:47;;;;;;;77.20;10.95;;;7.60;99.90;;;;;;5011472;28;20112;-76
2021/03/29 06:30:39;;;;;;;76.20;12.73;;;7.60;99.90;;;;;;5011794;28;20033;-75
2021/03/29 06:33:15;;;;;;;78.22;11.02;;;7.60;99.90;;;;;;5004929;28;20481;-76
2021/03/29 06:35:43;;;;;;;75.53;12.82;;;7.60;99.90;;;;;;5011030;28;20032;-76
2021/03/29 06:38:15;;;;;;;78.20;11.25;;;7.60;99.90;;;;;;5011649;28;20481;-76
2021/03/29 06:40:43;;;;;;;74.63;11.80;;;7.60;99.90;;;;;;5011667;28;20022;-75
2021/03/29 06:43:35;;;;;;;70.82;13.43;;;7.60;99.90;;;;;;4990769;28;20123;-76
2021/03/29 06:46:06;;;;;;;83.55;13.07;;;7.60;99.90;;;;;;4989419;28;20097;-76
2021/03/29 06:48:34;;;;;;;76.00;11.90;;;7.60;99.90;;;;;;4991956;28;20057;-75
2021/03/29 06:51:18;;;;;;;70.35;13.80;;;7.60;99.90;;;;;;4991820;28;20034;-76
2021/03/29 06:54:07;;;;;;;74.82;12.00;;;7.60;99.90;;;;;;4991298;28;20514;-76
2021/03/29 06:56:34;;;;;;;90.32;13.98;;;7.60;99.90;;;;;;4998710;28;20037;-76
2021/03/29 06:59:02;;;;;;;71.55;13.20;;;7.70;99.90;;;;;;5010170;28;20053;-76
2021/03/29 07:01:29;;;;;;;71.07;13.98;;;7.60;99.90;;;;;;5009706;28;20447;-75
2021/03/29 07:03:56;;;;;;;89.25;14.57;;;7.60;99.90;;;;;;5009383;28;20064;-77
2021/03/29 07:06:32;;;;;;;102.45;13.65;;;7.60;99.90;;;;;;5011030;28;20022;-76
2021/03/29 07:09:16;;;;;;;89.22;11.80;;;7.70;99.90;;;;;;5009452;28;20030;-76
2021/03/29 07:11:44;;;;;;;76.90;12.52;;;7.70;99.90;;;;;;5011115;28;20063;-76
2021/03/29 07:14:10;;;;;;;81.95;14.02;;;7.70;99.90;;;;;;5010510;28;20498;-76
2021/03/29 07:16:36;;;;;;;100.68;15.15;;;7.70;99.90;;;;;;5011165;28;20026;-76
2021/03/29 07:19:07;;;;;;;91.55;13.13;;;7.70;99.90;;;;;;5010610;28;20072;-76
2021/03/29 07:21:34;;;;;;;76.95;12.00;;;7.80;99.90;;;;;;5011081;28;20038;-76
2021/03/29 07:24:02;;;;;;;88.47;13.48;;;7.80;99.90;;;;;;5009268;28;20490;-76
2021/03/29 07:26:28;;;;;;;85.07;11.65;;;7.90;99.90;;;;;;5010736;28;20037;-76
2021/03/29 07:28:55;;;;;;;89.80;12.23;;;7.90;99.90;;;;;;5010889;28;20030;-76
2021/03/29 07:31:41;;;;;;;82.22;12.00;;;8.00;99.90;;;;;;5009807;28;20036;-75
2021/03/29 07:34:08;;;;;;;86.63;11.82;;;8.00;99.90;;;;;;5010349;28;20018;-76
2021/03/29 07:36:48;;;;;;;75.22;10.73;;;8.10;99.90;;;;;;5013954;28;20032;-76
2021/03/29 07:39:22;;;;;;;98.07;12.52;;;8.10;99.90;;;;;;5012860;28;20052;-77
2021/03/29 07:42:07;;;;;;;96.50;14.38;;;8.10;99.90;;;;;;5012222;28;20030;-76
2021/03/29 07:44:57;;;;;;;81.20;10.60;;;8.10;99.90;;;;;;5009605;28;20494;-75
2021/03/29 07:47:46;;;;;;;96.38;11.80;;;8.10;99.90;;;;;;5010614;28;20053;-76
2021/03/29 07:50:39;;;;;;;77.68;13.02;;;8.20;99.90;;;;;;5010019;28;20026;-76
2021/03/29 07:53:07;;;;;;;85.40;11.10;;;8.20;99.90;;;;;;5009613;28;20489;-76
2021/03/29 07:56:01;;;;;;;62.50;11.38;;;8.30;99.90;;;;;;5010644;28;20087;-76
2021/03/29 07:58:27;;;;;;;69.97;10.27;;;8.30;99.90;;;;;;5007308;28;20034;-76
2021/03/29 08:00:58;;;;;;;64.97;9.85;;;8.40;99.90;;;;;;5014130;28;20504;-76
2021/03/29 08:03:23;;;;;;;74.55;11.38;;;8.30;99.90;;;;;;5014274;28;20030;-76
2021/03/29 08:05:50;;;;;;;75.45;11.98;;;8.40;99.90;;;;;;5013290;28;20390;-76
2021/03/29 08:08:30;;;;;;;74.10;10.57;;;8.50;99.90;;;;;;5013825;28;20101;-76
2021/03/29 08:11:01;;;;;;;85.70;11.45;;;8.60;99.90;;;;;;5013731;28;20018;-75
2021/03/29 08:13:43;;;;;;;73.55;10.13;;;8.70;99.90;;;;;;5012690;28;20026;-76
2021/03/29 08:16:17;;;;;;;71.18;10.52;;;8.70;99.90;;;;;;5014048;28;20430;-76
2021/03/29 08:19:09;;;;;;;70.05;11.45;;;8.80;99.90;;;;;;5013239;28;20109;-75
2021/03/29 08:21:55;;;;;;;74.78;10.82;;;8.80;99.90;;;;;;5013945;28;20030;-76
2021/03/29 08:24:33;;;;;;;71.68;12.98;;;8.90;99.90;;;;;;5011850;28;20026;-76
2021/03/29 08:27:25;;;;;;;60.40;10.52;;;8.90;99.90;;;;;;5013382;28;20109;-76
2021/03/29 08:29:53;;;;;;;87.63;11.32;;;8.90;99.90;;;;;;5011811;28;20502;-76
2021/03/29 08:32:31;;;;;;;62.03;10.80;;;8.90;99.90;;;;;;5013570;28;20029;-76
2021/03/29 08:35:07;;;;;;;67.55;11.07;;;8.90;99.90;;;;;;5012928;28;20080;-77
2021/03/29 08:37:40;;;;;;;90.60;13.50;;;8.90;99.90;;;;;;5013265;28;20026;-77
2021/03/29 08:40:10;;;;;;;98.95;13.02;;;8.80;99.90;;;;;;5013412;28;20022;-77
2021/03/29 08:42:37;;;;;;;77.68;11.63;;;8.70;99.90;;;;;;5011754;28;20034;-77
2021/03/29 08:45:10;;;;;;;83.63;12.32;;;8.60;99.90;;;;;;5012657;28;20095;-77
2021/03/29 08:47:41;;;;;;;69.78;13.82;;;8.60;99.90;;;;;;5011571;28;20099;-77
2021/03/29 08:50:10;;;;;;;75.97;11.70;;;8.60;99.90;;;;;;5006462;28;20022;-78
2021/03/29 08:52:44;;;;;;;73.25;11.77;;;8.60;99.90;;;;;;5005799;28;20026;-79
2021/03/29 08:55:16;;;;;;;69.10;12.00;;;8.60;99.90;;;;;;5012311;28;20049;-79
2021/03/29 08:57:42;;;;;;;106.75;13.95;;;8.70;99.90;;;;;;5012751;28;20029;-78
2021/03/29 09:00:20;;;;;;;74.65;12.20;;;8.70;99.90;;;;;;5012793;28;20450;-78
2021/03/29 09:02:46;;;;;;;88.25;12.82;;;8.70;99.90;;;;;;5012919;28;20022;-78
2021/03/29 09:05:13;;;;;;;69.28;10.82;;;8.70;99.90;;;;;;5010618;28;20048;-77
2021/03/29 09:07:43;;;;;;;78.97;12.35;;;8.70;99.90;;;;;;5012750;28;20040;-79
2021/03/29 09:10:17;;;;;;;86.18;13.13;;;8.60;99.90;;;;;;5012921;28;20033;-78
2021/03/29 09:12:44;;;;;;;71.40;12.02;;;8.70;99.90;;;;;;5013033;28;20105;-79
2021/03/29 09:15:18;;;;;;;91.88;12.30;;;8.70;99.90;;;;;;5011807;28;20022;-77
2021/03/29 09:17:44;;;;;;;65.68;11.00;;;8.80;99.90;;;;;;5011705;28;20030;-78
2021/03/29 09:20:20;;;;;;;88.30;11.32;;;8.80;99.90;;;;;;5011498;28;20034;-78
2021/03/29 09:22:47;;;;;;;71.80;12.80;;;9.00;99.90;;;;;;5023704;28;20037;-79
2021/03/29 09:25:13;;;;;;;110.18;15.48;;;9.00;99.90;;;;;;5011939;28;20437;-77
2021/03/29 09:27:42;;;;;;;85.15;16.40;;;9.10;99.90;;;;;;5012005;28;20049;-77
2021/03/29 09:30:11;;;;;;;92.60;12.32;;;9.00;99.90;;;;;;5012847;28;20057;-77
2021/03/29 09:32:41;;;;;;;75.28;12.23;;;9.10;99.90;;;;;;5012559;28;20026;-77
2021/03/29 09:35:07;;;;;;;79.07;13.32;;;9.10;99.90;;;;;;5012004;28;20029;-78
2021/03/29 09:37:33;;;;;;;77.07;12.80;;;9.20;99.90;;;;;;5012201;28;20021;-78
2021/03/29 09:40:07;;;;;;;79.00;11.27;;;9.20;99.90;;;;;;5011027;28;20402;-77
2021/03/29 09:42:48;;;;;;;77.30;13.25;;;9.20;99.90;;;;;;5009051;28;20034;-78
2021/03/29 09:45:29;;;;;;;59.13;12.32;;;9.30;99.90;;;;;;5003380;28;20025;-77
2021/03/29 09:48:09;;;;;;;80.32;11.35;;;9.50;99.90;;;;;;5003423;28;20526;-87
2021/03/29 09:50:44;;;;;;;76.50;12.93;;;9.50;99.90;;;;;;5001512;28;20033;-78
2021/03/29 09:53:12;;;;;;;64.72;12.18;;;9.60;99.90;;;;;;5006828;28;20063;-78
2021/03/29 09:55:44;;;;;;;67.10;11.63;;;9.70;99.90;;;;;;5007250;28;20034;-78
2021/03/29 09:58:30;;;;;;;82.28;13.13;;;9.70;99.90;;;;;;5004290;28;20072;-78
2021/03/29 10:01:01;;;;;;;63.03;10.98;;;9.70;99.90;;;;;;5005688;28;20071;-79
2021/03/29 10:03:27;;;;;;;68.43;12.82;;;9.70;99.90;;;;;;5007296;28;20026;-79
2021/03/29 10:05:54;;;;;;;75.57;12.35;;;9.70;99.90;;;;;;5007844;28;20040;-79
2021/03/29 10:08:38;;;;;;;71.70;11.55;;;9.80;99.90;;;;;;5006811;28;20029;-79
2021/03/29 10:11:09;;;;;;;74.78;13.80;;;9.80;99.90;;;;;;5004582;28;20037;-79
2021/03/29 10:13:39;;;;;;;80.90;12.35;;;9.80;99.90;;;;;;5007379;28;20033;-79
2021/03/29 10:16:25;;;;;;;67.70;11.27;;;9.80;99.90;;;;;;5007362;28;20041;-78
2021/03/29 10:19:04;;;;;;;70.93;12.30;;;9.80;99.90;;;;;;5007149;28;20402;-77
2021/03/29 10:21:29;;;;;;;86.65;11.60;;;9.80;99.90;;;;;;5008732;28;20030;-78
2021/03/29 10:24:14;;;;;;;90.43;13.95;;;9.70;99.90;;;;;;5004047;28;20038;-79
2021/03/29 10:27:01;;;;;;;76.32;13.27;;;9.70;99.90;;;;;;4996167;28;20041;-79
2021/03/29 10:29:40;;;;;;;80.50;14.85;;;9.80;99.90;;;;;;5008720;28;20041;-79
2021/03/29 10:32:14;;;;;;;75.13;12.23;;;9.90;99.90;;;;;;5007736;28;20060;-79
2021/03/29 10:34:42;;;;;;;84.45;14.20;;;9.90;99.90;;;;;;5006457;28;20740;-79
2021/03/29 10:37:16;;;;;;;88.07;13.80;;;9.90;99.90;;;;;;5008134;28;20030;-79
2021/03/29 10:39:42;;;;;;;77.13;13.85;;;10.10;99.90;;;;;;5007088;28;20033;-79
2021/03/29 10:42:09;;;;;;;70.32;12.05;;;9.90;99.90;;;;;;5006241;28;20030;-79
2021/03/29 10:44:35;;;;;;;63.30;13.02;;;10.00;99.90;;;;;;5006089;28;20025;-79
2021/03/29 10:47:01;;;;;;;68.95;12.82;;;9.90;99.90;;;;;;5007275;28;20062;-79
2021/03/29 10:49:26;;;;;;;58.30;12.77;;;9.90;99.90;;;;;;5008472;28;20030;-78
2021/03/29 10:51:52;;;;;;;70.82;12.38;;;9.90;99.90;;;;;;5006941;28;20026;-78
2021/03/29 10:54:17;;;;;;;70.57;13.05;;;9.90;99.90;;;;;;5006682;28;20030;-78
2021/03/29 10:56:46;;;;;;;71.78;15.00;;;10.00;99.90;;;;;;5002551;28;20086;-78
2021/03/29 10:59:12;;;;;;;80.18;15.27;;;10.10;99.90;;;;;;5007038;28;20034;-78
2021/03/29 11:01:40;;;;;;;74.28;14.77;;;10.20;99.90;;;;;;5008352;28;20126;-78
2021/03/29 11:04:06;;;;;;;75.95;13.38;;;10.30;99.90;;;;;;5006146;28;20160;-78
2021/03/29 11:06:31;;;;;;;79.57;12.85;;;10.30;99.90;;;;;;5007907;28;20108;-79
2021/03/29 11:08:57;;;;;;;69.70;11.70;;;10.30;99.90;;;;;;5008813;28;20041;-78
2021/03/29 11:11:22;;;;;;;63.67;11.52;;;10.30;99.90;;;;;;5011837;28;20030;-78
2021/03/29 11:13:48;;;;;;;71.65;14.05;;;10.40;99.90;;;;;;5014306;28;20030;-79
2021/03/29 11:16:15;;;;;;;68.50;10.70;;;10.50;99.90;;;;;;5015142;28;20132;-77
2021/03/29 11:18:40;;;;;;;77.43;13.98;;;10.60;99.90;;;;;;5014842;28;20056;-78
2021/03/29 11:21:06;;;;;;;84.32;12.68;;;10.70;99.90;;;;;;5012757;28;20065;-79
2021/03/29 11:23:32;;;;;;;71.18;12.90;;;10.60;99.90;;;;;;5011592;28;20025;-79
2021/03/29 11:25:57;;;;;;;89.13;12.23;;;10.60;99.90;;;;;;5013369;28;20065;-78
2021/03/29 11:28:23;;;;;;;76.90;13.30;;;10.40;99.90;;;;;;5013167;28;20037;-78
2021/03/29 11:30:49;;;;;;;65.82;12.75;;;10.30;99.90;;;;;;5014688;28;20112;-80
2021/03/29 11:33:15;;;;;;;86.82;13.57;;;10.40;99.90;;;;;;5014793;28;20026;-79
2021/03/29 11:35:40;;;;;;;75.85;13.80;;;10.20;99.90;;;;;;5013954;28;20032;-79
2021/03/29 11:38:06;;;;;;;73.00;14.70;;;10.10;99.90;;;;;;5012646;28;20033;-79
2021/03/29 11:40:31;;;;;;;68.60;10.90;;;10.30;99.90;;;;;;5014797;28;20124;-79
2021/03/29 11:42:57;;;;;;;63.05;11.60;;;10.40;99.90;;;;;;5012407;28;20048;-79
2021/03/29 11:45:23;;;;;;;62.20;10.82;;;10.40;99.90;;;;;;5012589;28;20061;-79
2021/03/29 11:47:48;;;;;;;66.07;13.70;;;10.40;99.90;;;;;;5012764;28;20037;-78
2021/03/29 11:50:15;;;;;;;74.72;12.10;;;10.30;99.90;;;;;;5000484;28;20030;-78
2021/03/29 11:52:42;;;;;;;88.07;13.60;;;10.20;99.90;;;;;;5019561;28;20026;-78
2021/03/29 11:55:08;;;;;;;82.07;13.77;;;10.30;99.90;;;;;;5007291;28;20499;-78
2021/03/29 11:57:34;;;;;;;70.40;12.18;;;10.40;99.90;;;;;;5007217;28;20036;-86
2021/03/29 12:00:02;;;;;;;75.75;13.00;;;10.40;99.90;;;;;;5010186;28;20121;-83
2021/03/29 12:02:35;;;;;;;74.82;12.75;;;10.40;99.90;;;;;;5008562;28;20504;-86
2021/03/29 12:05:14;;;;;;;68.30;13.05;;;10.50;99.90;;;;;;5010259;28;20056;-83
2021/03/29 12:08:03;;;;;;;56.70;13.68;;;10.50;99.90;;;;;;5011111;28;20030;-81
2021/03/29 12:13:16;;;;;;;58.72;10.73;;;10.60;99.90;;;;;;5007683;28;20108;-79
2021/03/29 12:15:48;;;;;;;67.70;12.55;;;10.60;99.90;;;;;;5008144;28;20116;-78
2021/03/29 12:18:15;;;;;;;54.05;11.50;;;10.70;99.90;;;;;;5009014;28;20418;-79
2021/03/29 12:20:41;;;;;;;65.00;12.95;;;10.70;99.90;;;;;;5008778;28;20030;-79
2021/03/29 12:23:09;;;;;;;66.57;12.20;;;10.70;99.90;;;;;;5007737;28;20445;-79
2021/03/29 12:25:36;;;;;;;62.78;14.05;;;10.80;99.90;;;;;;5009315;28;20117;-79
2021/03/29 12:28:02;;;;;;;68.55;13.27;;;10.70;99.90;;;;;;5010088;28;20026;-79
2021/03/29 12:30:28;;;;;;;63.30;11.63;;;10.70;99.90;;;;;;5009116;28;20080;-79
2021/03/29 12:32:54;;;;;;;81.38;13.18;;;10.50;99.90;;;;;;5010112;28;20028;-79
2021/03/29 12:35:22;;;;;;;74.63;14.00;;;10.60;99.90;;;;;;5007948;28;20030;-79
2021/03/29 12:37:50;;;;;;;53.20;12.52;;;10.60;99.90;;;;;;5010330;28;20048;-79
2021/03/29 12:40:21;;;;;;;70.40;13.65;;;10.50;99.90;;;;;;5009910;28;20371;-79
2021/03/29 12:45:30;;;;;;;60.90;11.30;;;10.40;99.90;;;;;;5009335;28;20542;-79
2021/03/29 12:48:03;;;;;;;;;;;10.40;99.90;;;;;;5010324;28;20068;-79
2021/03/29 12:50:29;;;;;;;75.35;12.82;;;10.40;99.90;;;;;;5025198;28;19945;-79
2021/03/29 12:52:55;;;;;;;67.35;14.70;;;10.50;99.90;;;;;;5009724;28;20390;-79
2021/03/29 12:55:24;;;;;;;73.53;14.70;;;10.40;99.90;;;;;;5006744;28;20026;-79
2021/03/29 12:57:49;;;;;;;62.97;14.00;;;10.50;99.90;;;;;;5006969;28;20030;-79